sensor_id;sensor_type;location;lat;lon;timestamp;P1;P2;P0
43479;PMS5003;29067;35.492;-97.520;2024-02-21T00:01:18;6;5;
43479;PMS5003;29067;35.492;-97.520;2024-02-21T00:03:48;10;10;
43479;PMS5003;29067;35.492;-97.520;2024-02-21T00:06:16;36;36;
43479;PMS5003;29067;35.492;-97.520;2024-02-21T00:08:43;41;41;
43479;PMS5003;29067;35.492;-97.520;2024-02-21T00:11:11;1;1;
43479;PMS5003;29067;35.492;-97.520;2024-02-21T00:13:39;4;3;
43479;PMS5003;29067;35.492;-97.520;2024-02-21T00:16:06;1;1;
43479;PMS5003;29067;35.492;-97.520;2024-02-21T00:18:34;2;2;
43479;PMS5003;29067;35.492;-97.520;2024-02-21T00:21:01;2;2;
43479;PMS5003;29067;35.492;-97.520;2024-02-21T00:23:30;3;3;
43479;PMS5003;29067;35.492;-97.520;2024-02-21T00:25:57;3;3;
43479;PMS5003;29067;35.492;-97.520;2024-02-21T00:28:25;3;3;
43479;PMS5003;29067;35.492;-97.520;2024-02-21T00:30:52;2;2;
43479;PMS5003;29067;35.492;-97.520;2024-02-21T00:33:20;5;5;
43479;PMS5003;29067;35.492;-97.520;2024-02-21T00:35:48;5;3;
43479;PMS5003;29067;35.492;-97.520;2024-02-21T00:38:15;3;3;
43479;PMS5003;29067;35.492;-97.520;2024-02-21T00:40:43;3;3;
43479;PMS5003;29067;35.492;-97.520;2024-02-21T00:43:10;3;3;
43479;PMS5003;29067;35.492;-97.520;2024-02-21T00:45:38;5;4;
43479;PMS5003;29067;35.492;-97.520;2024-02-21T00:48:06;4;4;
43479;PMS5003;29067;35.492;-97.520;2024-02-21T00:50:34;3;3;
43479;PMS5003;29067;35.492;-97.520;2024-02-21T00:53:02;4;4;
43479;PMS5003;29067;35.492;-97.520;2024-02-21T00:55:30;11;6;
43479;PMS5003;29067;35.492;-97.520;2024-02-21T00:57:58;4;4;
43479;PMS5003;29067;35.492;-97.520;2024-02-21T01:00:26;4;4;
43479;PMS5003;29067;35.492;-97.520;2024-02-21T01:02:53;5;4;
43479;PMS5003;29067;35.492;-97.520;2024-02-21T01:05:21;4;4;
43479;PMS5003;29067;35.492;-97.520;2024-02-21T01:07:49;6;6;
43479;PMS5003;29067;35.492;-97.520;2024-02-21T01:10:16;7;6;
43479;PMS5003;29067;35.492;-97.520;2024-02-21T01:12:44;7;6;
43479;PMS5003;29067;35.492;-97.520;2024-02-21T01:15:12;5;5;
43479;PMS5003;29067;35.492;-97.520;2024-02-21T01:17:40;6;5;
43479;PMS5003;29067;35.492;-97.520;2024-02-21T01:20:07;6;6;
43479;PMS5003;29067;35.492;-97.520;2024-02-21T01:22:36;7;6;
43479;PMS5003;29067;35.492;-97.520;2024-02-21T01:25:03;6;5;
43479;PMS5003;29067;35.492;-97.520;2024-02-21T01:27:32;7;6;
43479;PMS5003;29067;35.492;-97.520;2024-02-21T01:29:59;8;7;
43479;PMS5003;29067;35.492;-97.520;2024-02-21T01:32:27;7;7;
43479;PMS5003;29067;35.492;-97.520;2024-02-21T01:34:55;6;5;
43479;PMS5003;29067;35.492;-97.520;2024-02-21T01:37:22;6;6;
43479;PMS5003;29067;35.492;-97.520;2024-02-21T01:39:50;7;7;
43479;PMS5003;29067;35.492;-97.520;2024-02-21T01:42:18;5;5;
43479;PMS5003;29067;35.492;-97.520;2024-02-21T01:44:45;5;5;
43479;PMS5003;29067;35.492;-97.520;2024-02-21T01:47:13;5;4;
43479;PMS5003;29067;35.492;-97.520;2024-02-21T01:49:41;4;4;
43479;PMS5003;29067;35.492;-97.520;2024-02-21T01:52:09;7;5;
43479;PMS5003;29067;35.492;-97.520;2024-02-21T01:54:39;5;5;
43479;PMS5003;29067;35.492;-97.520;2024-02-21T01:57:07;6;5;
43479;PMS5003;29067;35.492;-97.520;2024-02-21T01:59:35;5;5;
43479;PMS5003;29067;35.492;-97.520;2024-02-21T02:02:03;4;4;
43479;PMS5003;29067;35.492;-97.520;2024-02-21T02:04:31;5;5;
43479;PMS5003;29067;35.492;-97.520;2024-02-21T02:07:00;11;11;
43479;PMS5003;29067;35.492;-97.520;2024-02-21T02:09:30;15;15;
43479;PMS5003;29067;35.492;-97.520;2024-02-21T02:11:58;6;6;
43479;PMS5003;29067;35.492;-97.520;2024-02-21T02:14:26;7;7;
43479;PMS5003;29067;35.492;-97.520;2024-02-21T02:16:54;7;7;
43479;PMS5003;29067;35.492;-97.520;2024-02-21T02:19:22;7;6;
43479;PMS5003;29067;35.492;-97.520;2024-02-21T02:21:50;7;6;
43479;PMS5003;29067;35.492;-97.520;2024-02-21T02:24:23;5;5;
43479;PMS5003;29067;35.492;-97.520;2024-02-21T02:26:52;6;5;
43479;PMS5003;29067;35.492;-97.520;2024-02-21T02:29:19;7;7;
43479;PMS5003;29067;35.492;-97.520;2024-02-21T02:31:48;4;4;
43479;PMS5003;29067;35.492;-97.520;2024-02-21T02:34:16;7;6;
43479;PMS5003;29067;35.492;-97.520;2024-02-21T02:36:44;8;8;
43479;PMS5003;29067;35.492;-97.520;2024-02-21T02:39:12;10;9;
43479;PMS5003;29067;35.492;-97.520;2024-02-21T02:41:39;12;11;
43479;PMS5003;29067;35.492;-97.520;2024-02-21T02:44:08;17;17;
43479;PMS5003;29067;35.492;-97.520;2024-02-21T02:46:35;14;14;
43479;PMS5003;29067;35.492;-97.520;2024-02-21T02:49:07;17;17;
43479;PMS5003;29067;35.492;-97.520;2024-02-21T02:51:34;21;18;
43479;PMS5003;29067;35.492;-97.520;2024-02-21T02:54:02;18;16;
43479;PMS5003;29067;35.492;-97.520;2024-02-21T02:56:31;17;17;
43479;PMS5003;29067;35.492;-97.520;2024-02-21T02:58:58;17;16;
43479;PMS5003;29067;35.492;-97.520;2024-02-21T03:01:26;18;16;
43479;PMS5003;29067;35.492;-97.520;2024-02-21T03:03:54;17;16;
43479;PMS5003;29067;35.492;-97.520;2024-02-21T03:06:22;14;13;
43479;PMS5003;29067;35.492;-97.520;2024-02-21T03:08:50;16;15;
43479;PMS5003;29067;35.492;-97.520;2024-02-21T03:11:18;18;15;
43479;PMS5003;29067;35.492;-97.520;2024-02-21T03:13:45;13;12;
43479;PMS5003;29067;35.492;-97.520;2024-02-21T03:16:13;13;13;
43479;PMS5003;29067;35.492;-97.520;2024-02-21T03:18:44;15;13;
43479;PMS5003;29067;35.492;-97.520;2024-02-21T03:21:12;14;14;
43479;PMS5003;29067;35.492;-97.520;2024-02-21T03:23:40;18;16;
43479;PMS5003;29067;35.492;-97.520;2024-02-21T03:26:08;16;16;
43479;PMS5003;29067;35.492;-97.520;2024-02-21T03:28:36;22;21;
43479;PMS5003;29067;35.492;-97.520;2024-02-21T03:31:04;23;19;
43479;PMS5003;29067;35.492;-97.520;2024-02-21T03:33:31;20;20;
43479;PMS5003;29067;35.492;-97.520;2024-02-21T03:35:59;19;19;
43479;PMS5003;29067;35.492;-97.520;2024-02-21T03:38:27;19;18;
43479;PMS5003;29067;35.492;-97.520;2024-02-21T03:40:55;16;16;
43479;PMS5003;29067;35.492;-97.520;2024-02-21T03:43:23;19;19;
43479;PMS5003;29067;35.492;-97.520;2024-02-21T03:45:51;17;17;
43479;PMS5003;29067;35.492;-97.520;2024-02-21T03:48:19;18;16;
43479;PMS5003;29067;35.492;-97.520;2024-02-21T03:50:47;22;20;
43479;PMS5003;29067;35.492;-97.520;2024-02-21T03:53:15;23;19;
43479;PMS5003;29067;35.492;-97.520;2024-02-21T03:55:43;18;16;
43479;PMS5003;29067;35.492;-97.520;2024-02-21T03:58:11;23;18;
43479;PMS5003;29067;35.492;-97.520;2024-02-21T04:00:39;17;16;
43479;PMS5003;29067;35.492;-97.520;2024-02-21T04:03:07;24;17;
43479;PMS5003;29067;35.492;-97.520;2024-02-21T04:05:35;17;16;
43479;PMS5003;29067;35.492;-97.520;2024-02-21T04:08:04;21;18;
43479;PMS5003;29067;35.492;-97.520;2024-02-21T04:10:32;16;15;
43479;PMS5003;29067;35.492;-97.520;2024-02-21T04:13:01;15;15;
43479;PMS5003;29067;35.492;-97.520;2024-02-21T04:15:28;18;18;
43479;PMS5003;29067;35.492;-97.520;2024-02-21T04:17:57;16;16;
43479;PMS5003;29067;35.492;-97.520;2024-02-21T04:20:24;17;16;
43479;PMS5003;29067;35.492;-97.520;2024-02-21T04:22:53;20;18;
43479;PMS5003;29067;35.492;-97.520;2024-02-21T04:25:20;19;17;
43479;PMS5003;29067;35.492;-97.520;2024-02-21T04:27:48;15;15;
43479;PMS5003;29067;35.492;-97.520;2024-02-21T04:30:16;17;15;
43479;PMS5003;29067;35.492;-97.520;2024-02-21T04:32:44;14;13;
43479;PMS5003;29067;35.492;-97.520;2024-02-21T04:35:12;15;15;
43479;PMS5003;29067;35.492;-97.520;2024-02-21T04:37:40;16;15;
43479;PMS5003;29067;35.492;-97.520;2024-02-21T04:40:08;16;15;
43479;PMS5003;29067;35.492;-97.520;2024-02-21T04:42:37;15;14;
43479;PMS5003;29067;35.492;-97.520;2024-02-21T04:45:05;13;13;
43479;PMS5003;29067;35.492;-97.520;2024-02-21T04:47:33;16;15;
43479;PMS5003;29067;35.492;-97.520;2024-02-21T04:50:01;16;15;
43479;PMS5003;29067;35.492;-97.520;2024-02-21T04:52:30;19;17;
43479;PMS5003;29067;35.492;-97.520;2024-02-21T04:54:58;21;19;
43479;PMS5003;29067;35.492;-97.520;2024-02-21T04:57:26;16;16;
43479;PMS5003;29067;35.492;-97.520;2024-02-21T04:59:53;21;20;
43479;PMS5003;29067;35.492;-97.520;2024-02-21T05:02:22;24;21;
43479;PMS5003;29067;35.492;-97.520;2024-02-21T05:04:50;20;20;
43479;PMS5003;29067;35.492;-97.520;2024-02-21T05:07:18;25;23;
43479;PMS5003;29067;35.492;-97.520;2024-02-21T05:09:46;25;24;
43479;PMS5003;29067;35.492;-97.520;2024-02-21T05:12:14;29;24;
43479;PMS5003;29067;35.492;-97.520;2024-02-21T05:14:42;25;23;
43479;PMS5003;29067;35.492;-97.520;2024-02-21T05:17:10;25;24;
43479;PMS5003;29067;35.492;-97.520;2024-02-21T05:19:37;26;26;
43479;PMS5003;29067;35.492;-97.520;2024-02-21T05:22:06;28;27;
43479;PMS5003;29067;35.492;-97.520;2024-02-21T05:24:34;32;29;
43479;PMS5003;29067;35.492;-97.520;2024-02-21T05:27:01;28;26;
43479;PMS5003;29067;35.492;-97.520;2024-02-21T05:29:29;32;30;
43479;PMS5003;29067;35.492;-97.520;2024-02-21T05:31:56;32;30;
43479;PMS5003;29067;35.492;-97.520;2024-02-21T05:34:25;36;32;
43479;PMS5003;29067;35.492;-97.520;2024-02-21T05:36:53;37;33;
43479;PMS5003;29067;35.492;-97.520;2024-02-21T05:39:21;33;28;
43479;PMS5003;29067;35.492;-97.520;2024-02-21T05:41:49;37;34;
43479;PMS5003;29067;35.492;-97.520;2024-02-21T05:44:16;36;34;
43479;PMS5003;29067;35.492;-97.520;2024-02-21T05:46:45;35;33;
43479;PMS5003;29067;35.492;-97.520;2024-02-21T05:49:13;27;24;
43479;PMS5003;29067;35.492;-97.520;2024-02-21T05:51:41;31;28;
43479;PMS5003;29067;35.492;-97.520;2024-02-21T05:54:08;32;31;
43479;PMS5003;29067;35.492;-97.520;2024-02-21T05:56:36;36;35;
43479;PMS5003;29067;35.492;-97.520;2024-02-21T05:59:04;37;32;
43479;PMS5003;29067;35.492;-97.520;2024-02-21T06:01:32;39;38;
43479;PMS5003;29067;35.492;-97.520;2024-02-21T06:04:00;19;19;
43479;PMS5003;29067;35.492;-97.520;2024-02-21T06:06:28;20;20;
43479;PMS5003;29067;35.492;-97.520;2024-02-21T06:08:56;23;19;
43479;PMS5003;29067;35.492;-97.520;2024-02-21T06:11:24;22;20;
43479;PMS5003;29067;35.492;-97.520;2024-02-21T06:13:53;20;19;
43479;PMS5003;29067;35.492;-97.520;2024-02-21T06:16:21;21;18;
43479;PMS5003;29067;35.492;-97.520;2024-02-21T06:18:49;16;16;
43479;PMS5003;29067;35.492;-97.520;2024-02-21T06:21:17;18;17;
43479;PMS5003;29067;35.492;-97.520;2024-02-21T06:23:44;21;20;
43479;PMS5003;29067;35.492;-97.520;2024-02-21T06:26:12;15;15;
43479;PMS5003;29067;35.492;-97.520;2024-02-21T06:28:40;18;16;
43479;PMS5003;29067;35.492;-97.520;2024-02-21T06:31:08;16;16;
43479;PMS5003;29067;35.492;-97.520;2024-02-21T06:33:36;15;15;
43479;PMS5003;29067;35.492;-97.520;2024-02-21T06:36:04;15;15;
43479;PMS5003;29067;35.492;-97.520;2024-02-21T06:38:32;16;15;
43479;PMS5003;29067;35.492;-97.520;2024-02-21T06:41:00;16;15;
43479;PMS5003;29067;35.492;-97.520;2024-02-21T06:43:28;12;12;
43479;PMS5003;29067;35.492;-97.520;2024-02-21T06:45:55;14;14;
43479;PMS5003;29067;35.492;-97.520;2024-02-21T06:48:23;17;16;
43479;PMS5003;29067;35.492;-97.520;2024-02-21T06:50:52;12;12;
43479;PMS5003;29067;35.492;-97.520;2024-02-21T06:53:19;15;14;
43479;PMS5003;29067;35.492;-97.520;2024-02-21T06:55:47;12;12;
43479;PMS5003;29067;35.492;-97.520;2024-02-21T06:58:15;12;12;
43479;PMS5003;29067;35.492;-97.520;2024-02-21T07:00:43;15;14;
43479;PMS5003;29067;35.492;-97.520;2024-02-21T07:03:10;10;10;
43479;PMS5003;29067;35.492;-97.520;2024-02-21T07:05:38;13;13;
43479;PMS5003;29067;35.492;-97.520;2024-02-21T07:08:06;10;10;
43479;PMS5003;29067;35.492;-97.520;2024-02-21T07:10:34;13;11;
43479;PMS5003;29067;35.492;-97.520;2024-02-21T07:13:02;9;9;
43479;PMS5003;29067;35.492;-97.520;2024-02-21T07:15:29;11;11;
43479;PMS5003;29067;35.492;-97.520;2024-02-21T07:17:57;10;9;
43479;PMS5003;29067;35.492;-97.520;2024-02-21T07:20:25;11;11;
43479;PMS5003;29067;35.492;-97.520;2024-02-21T07:22:53;10;9;
43479;PMS5003;29067;35.492;-97.520;2024-02-21T07:25:20;10;10;
43479;PMS5003;29067;35.492;-97.520;2024-02-21T07:27:48;10;10;
43479;PMS5003;29067;35.492;-97.520;2024-02-21T07:30:16;9;9;
43479;PMS5003;29067;35.492;-97.520;2024-02-21T07:32:44;11;10;
43479;PMS5003;29067;35.492;-97.520;2024-02-21T07:35:11;12;10;
43479;PMS5003;29067;35.492;-97.520;2024-02-21T07:37:39;9;9;
43479;PMS5003;29067;35.492;-97.520;2024-02-21T07:40:11;9;9;
43479;PMS5003;29067;35.492;-97.520;2024-02-21T07:42:40;11;10;
43479;PMS5003;29067;35.492;-97.520;2024-02-21T07:45:08;9;9;
43479;PMS5003;29067;35.492;-97.520;2024-02-21T07:47:36;11;10;
43479;PMS5003;29067;35.492;-97.520;2024-02-21T07:50:04;11;10;
43479;PMS5003;29067;35.492;-97.520;2024-02-21T07:52:33;11;11;
43479;PMS5003;29067;35.492;-97.520;2024-02-21T07:55:00;10;9;
43479;PMS5003;29067;35.492;-97.520;2024-02-21T07:57:28;9;9;
43479;PMS5003;29067;35.492;-97.520;2024-02-21T07:59:56;14;12;
43479;PMS5003;29067;35.492;-97.520;2024-02-21T08:02:24;14;12;
43479;PMS5003;29067;35.492;-97.520;2024-02-21T08:04:52;11;9;
43479;PMS5003;29067;35.492;-97.520;2024-02-21T08:07:20;12;11;
43479;PMS5003;29067;35.492;-97.520;2024-02-21T08:09:48;13;12;
43479;PMS5003;29067;35.492;-97.520;2024-02-21T08:12:16;10;10;
43479;PMS5003;29067;35.492;-97.520;2024-02-21T08:14:44;8;8;
43479;PMS5003;29067;35.492;-97.520;2024-02-21T08:17:12;9;9;
43479;PMS5003;29067;35.492;-97.520;2024-02-21T08:19:40;12;12;
43479;PMS5003;29067;35.492;-97.520;2024-02-21T08:22:08;11;11;
43479;PMS5003;29067;35.492;-97.520;2024-02-21T08:24:36;11;11;
43479;PMS5003;29067;35.492;-97.520;2024-02-21T08:27:04;12;12;
43479;PMS5003;29067;35.492;-97.520;2024-02-21T08:29:31;11;11;
43479;PMS5003;29067;35.492;-97.520;2024-02-21T08:31:59;10;10;
43479;PMS5003;29067;35.492;-97.520;2024-02-21T08:34:27;9;9;
43479;PMS5003;29067;35.492;-97.520;2024-02-21T08:36:55;11;10;
43479;PMS5003;29067;35.492;-97.520;2024-02-21T08:39:22;14;10;
43479;PMS5003;29067;35.492;-97.520;2024-02-21T08:41:50;8;8;
43479;PMS5003;29067;35.492;-97.520;2024-02-21T08:44:18;11;11;
43479;PMS5003;29067;35.492;-97.520;2024-02-21T08:46:46;11;10;
43479;PMS5003;29067;35.492;-97.520;2024-02-21T08:49:13;11;10;
43479;PMS5003;29067;35.492;-97.520;2024-02-21T08:51:41;11;10;
43479;PMS5003;29067;35.492;-97.520;2024-02-21T08:54:09;13;11;
43479;PMS5003;29067;35.492;-97.520;2024-02-21T08:56:37;10;10;
43479;PMS5003;29067;35.492;-97.520;2024-02-21T08:59:05;17;13;
43479;PMS5003;29067;35.492;-97.520;2024-02-21T09:01:33;10;9;
43479;PMS5003;29067;35.492;-97.520;2024-02-21T09:04:01;9;9;
43479;PMS5003;29067;35.492;-97.520;2024-02-21T09:06:29;14;11;
43479;PMS5003;29067;35.492;-97.520;2024-02-21T09:08:56;20;20;
43479;PMS5003;29067;35.492;-97.520;2024-02-21T09:11:25;37;37;
43479;PMS5003;29067;35.492;-97.520;2024-02-21T09:13:53;26;26;
43479;PMS5003;29067;35.492;-97.520;2024-02-21T09:16:21;12;12;
43479;PMS5003;29067;35.492;-97.520;2024-02-21T09:18:49;9;9;
43479;PMS5003;29067;35.492;-97.520;2024-02-21T09:21:16;13;13;
43479;PMS5003;29067;35.492;-97.520;2024-02-21T09:23:45;11;11;
43479;PMS5003;29067;35.492;-97.520;2024-02-21T09:26:12;10;9;
43479;PMS5003;29067;35.492;-97.520;2024-02-21T09:28:41;14;13;
43479;PMS5003;29067;35.492;-97.520;2024-02-21T09:31:09;11;9;
43479;PMS5003;29067;35.492;-97.520;2024-02-21T09:33:37;8;8;
43479;PMS5003;29067;35.492;-97.520;2024-02-21T09:36:06;13;11;
43479;PMS5003;29067;35.492;-97.520;2024-02-21T09:38:34;11;9;
43479;PMS5003;29067;35.492;-97.520;2024-02-21T09:41:04;12;11;
43479;PMS5003;29067;35.492;-97.520;2024-02-21T09:43:41;11;11;
43479;PMS5003;29067;35.492;-97.520;2024-02-21T09:46:11;9;9;
43479;PMS5003;29067;35.492;-97.520;2024-02-21T09:48:45;9;9;
43479;PMS5003;29067;35.492;-97.520;2024-02-21T09:51:25;9;9;
43479;PMS5003;29067;35.492;-97.520;2024-02-21T09:53:55;11;11;
43479;PMS5003;29067;35.492;-97.520;2024-02-21T09:56:24;7;7;
43479;PMS5003;29067;35.492;-97.520;2024-02-21T09:58:52;9;8;
43479;PMS5003;29067;35.492;-97.520;2024-02-21T10:01:20;10;10;
43479;PMS5003;29067;35.492;-97.520;2024-02-21T10:03:48;10;10;
43479;PMS5003;29067;35.492;-97.520;2024-02-21T10:06:16;8;8;
43479;PMS5003;29067;35.492;-97.520;2024-02-21T10:08:44;11;10;
43479;PMS5003;29067;35.492;-97.520;2024-02-21T10:11:22;8;8;
43479;PMS5003;29067;35.492;-97.520;2024-02-21T10:13:51;12;10;
43479;PMS5003;29067;35.492;-97.520;2024-02-21T10:16:29;10;10;
43479;PMS5003;29067;35.492;-97.520;2024-02-21T10:18:57;7;6;
43479;PMS5003;29067;35.492;-97.520;2024-02-21T10:21:25;8;7;
43479;PMS5003;29067;35.492;-97.520;2024-02-21T10:23:53;8;8;
43479;PMS5003;29067;35.492;-97.520;2024-02-21T10:26:21;8;8;
43479;PMS5003;29067;35.492;-97.520;2024-02-21T10:28:48;11;10;
43479;PMS5003;29067;35.492;-97.520;2024-02-21T10:31:24;10;8;
43479;PMS5003;29067;35.492;-97.520;2024-02-21T10:33:54;11;8;
43479;PMS5003;29067;35.492;-97.520;2024-02-21T10:36:23;6;6;
43479;PMS5003;29067;35.492;-97.520;2024-02-21T10:38:52;7;7;
43479;PMS5003;29067;35.492;-97.520;2024-02-21T10:41:21;7;7;
43479;PMS5003;29067;35.492;-97.520;2024-02-21T10:43:50;11;8;
43479;PMS5003;29067;35.492;-97.520;2024-02-21T10:46:20;8;8;
43479;PMS5003;29067;35.492;-97.520;2024-02-21T10:48:52;8;7;
43479;PMS5003;29067;35.492;-97.520;2024-02-21T10:51:29;8;8;
43479;PMS5003;29067;35.492;-97.520;2024-02-21T10:54:04;11;10;
43479;PMS5003;29067;35.492;-97.520;2024-02-21T10:56:51;7;7;
43479;PMS5003;29067;35.492;-97.520;2024-02-21T10:59:24;6;6;
43479;PMS5003;29067;35.492;-97.520;2024-02-21T11:01:52;8;8;
43479;PMS5003;29067;35.492;-97.520;2024-02-21T11:04:20;6;6;
43479;PMS5003;29067;35.492;-97.520;2024-02-21T11:06:49;7;6;
43479;PMS5003;29067;35.492;-97.520;2024-02-21T11:09:17;8;8;
43479;PMS5003;29067;35.492;-97.520;2024-02-21T11:11:56;7;6;
43479;PMS5003;29067;35.492;-97.520;2024-02-21T11:14:25;6;6;
43479;PMS5003;29067;35.492;-97.520;2024-02-21T11:16:54;7;6;
43479;PMS5003;29067;35.492;-97.520;2024-02-21T11:19:22;6;5;
43479;PMS5003;29067;35.492;-97.520;2024-02-21T11:21:53;5;5;
43479;PMS5003;29067;35.492;-97.520;2024-02-21T11:24:29;6;5;
43479;PMS5003;29067;35.492;-97.520;2024-02-21T11:27:07;5;5;
43479;PMS5003;29067;35.492;-97.520;2024-02-21T11:29:40;5;5;
43479;PMS5003;29067;35.492;-97.520;2024-02-21T11:32:10;6;6;
43479;PMS5003;29067;35.492;-97.520;2024-02-21T11:34:38;7;7;
43479;PMS5003;29067;35.492;-97.520;2024-02-21T11:37:13;6;5;
43479;PMS5003;29067;35.492;-97.520;2024-02-21T11:39:41;10;7;
43479;PMS5003;29067;35.492;-97.520;2024-02-21T11:42:09;12;8;
43479;PMS5003;29067;35.492;-97.520;2024-02-21T11:44:37;7;7;
43479;PMS5003;29067;35.492;-97.520;2024-02-21T11:47:06;7;7;
43479;PMS5003;29067;35.492;-97.520;2024-02-21T11:49:36;7;7;
43479;PMS5003;29067;35.492;-97.520;2024-02-21T11:52:05;6;6;
43479;PMS5003;29067;35.492;-97.520;2024-02-21T11:54:33;7;6;
43479;PMS5003;29067;35.492;-97.520;2024-02-21T11:57:02;7;6;
43479;PMS5003;29067;35.492;-97.520;2024-02-21T11:59:30;5;5;
43479;PMS5003;29067;35.492;-97.520;2024-02-21T12:03:00;6;5;
43479;PMS5003;29067;35.492;-97.520;2024-02-21T12:05:28;7;7;
43479;PMS5003;29067;35.492;-97.520;2024-02-21T12:07:55;7;5;
43479;PMS5003;29067;35.492;-97.520;2024-02-21T12:10:23;9;6;
43479;PMS5003;29067;35.492;-97.520;2024-02-21T12:12:54;7;7;
43479;PMS5003;29067;35.492;-97.520;2024-02-21T12:15:33;6;6;
43479;PMS5003;29067;35.492;-97.520;2024-02-21T12:18:02;8;7;
43479;PMS5003;29067;35.492;-97.520;2024-02-21T12:20:30;5;4;
43479;PMS5003;29067;35.492;-97.520;2024-02-21T12:23:00;6;5;
43479;PMS5003;29067;35.492;-97.520;2024-02-21T12:25:28;7;6;
43479;PMS5003;29067;35.492;-97.520;2024-02-21T12:27:56;5;5;
43479;PMS5003;29067;35.492;-97.520;2024-02-21T12:30:23;6;5;
43479;PMS5003;29067;35.492;-97.520;2024-02-21T12:32:51;4;4;
43479;PMS5003;29067;35.492;-97.520;2024-02-21T12:35:19;6;6;
43479;PMS5003;29067;35.492;-97.520;2024-02-21T12:37:47;5;5;
43479;PMS5003;29067;35.492;-97.520;2024-02-21T12:40:15;4;4;
43479;PMS5003;29067;35.492;-97.520;2024-02-21T12:42:43;4;4;
43479;PMS5003;29067;35.492;-97.520;2024-02-21T12:45:11;5;4;
43479;PMS5003;29067;35.492;-97.520;2024-02-21T12:47:39;7;6;
43479;PMS5003;29067;35.492;-97.520;2024-02-21T12:50:07;6;5;
43479;PMS5003;29067;35.492;-97.520;2024-02-21T12:52:36;7;5;
43479;PMS5003;29067;35.492;-97.520;2024-02-21T12:55:04;6;5;
43479;PMS5003;29067;35.492;-97.520;2024-02-21T12:57:32;4;3;
43479;PMS5003;29067;35.492;-97.520;2024-02-21T13:00:00;6;5;
43479;PMS5003;29067;35.492;-97.520;2024-02-21T13:02:28;5;5;
43479;PMS5003;29067;35.492;-97.520;2024-02-21T13:04:56;6;5;
43479;PMS5003;29067;35.492;-97.520;2024-02-21T13:07:24;4;4;
43479;PMS5003;29067;35.492;-97.520;2024-02-21T13:09:52;3;3;
43479;PMS5003;29067;35.492;-97.520;2024-02-21T13:12:19;4;4;
43479;PMS5003;29067;35.492;-97.520;2024-02-21T13:14:47;4;3;
43479;PMS5003;29067;35.492;-97.520;2024-02-21T13:17:16;5;5;
43479;PMS5003;29067;35.492;-97.520;2024-02-21T13:19:44;4;4;
43479;PMS5003;29067;35.492;-97.520;2024-02-21T13:22:12;6;5;
43479;PMS5003;29067;35.492;-97.520;2024-02-21T13:24:40;3;2;
43479;PMS5003;29067;35.492;-97.520;2024-02-21T13:27:08;4;4;
43479;PMS5003;29067;35.492;-97.520;2024-02-21T13:29:35;2;2;
43479;PMS5003;29067;35.492;-97.520;2024-02-21T13:32:04;4;3;
43479;PMS5003;29067;35.492;-97.520;2024-02-21T13:34:33;4;4;
43479;PMS5003;29067;35.492;-97.520;2024-02-21T13:37:01;4;4;
43479;PMS5003;29067;35.492;-97.520;2024-02-21T13:39:29;5;4;
43479;PMS5003;29067;35.492;-97.520;2024-02-21T13:41:57;4;4;
43479;PMS5003;29067;35.492;-97.520;2024-02-21T13:44:24;4;4;
43479;PMS5003;29067;35.492;-97.520;2024-02-21T13:46:52;4;4;
43479;PMS5003;29067;35.492;-97.520;2024-02-21T13:49:20;3;3;
43479;PMS5003;29067;35.492;-97.520;2024-02-21T13:51:48;4;3;
43479;PMS5003;29067;35.492;-97.520;2024-02-21T13:54:16;5;5;
43479;PMS5003;29067;35.492;-97.520;2024-02-21T13:56:44;3;3;
43479;PMS5003;29067;35.492;-97.520;2024-02-21T13:59:12;4;4;
43479;PMS5003;29067;35.492;-97.520;2024-02-21T14:01:39;3;3;
43479;PMS5003;29067;35.492;-97.520;2024-02-21T14:04:07;5;5;
43479;PMS5003;29067;35.492;-97.520;2024-02-21T14:06:35;4;4;
43479;PMS5003;29067;35.492;-97.520;2024-02-21T14:09:03;4;3;
43479;PMS5003;29067;35.492;-97.520;2024-02-21T14:11:31;10;9;
43479;PMS5003;29067;35.492;-97.520;2024-02-21T14:13:58;5;4;
43479;PMS5003;29067;35.492;-97.520;2024-02-21T14:16:26;5;4;
43479;PMS5003;29067;35.492;-97.520;2024-02-21T14:18:54;5;4;
43479;PMS5003;29067;35.492;-97.520;2024-02-21T14:21:23;4;4;
43479;PMS5003;29067;35.492;-97.520;2024-02-21T14:23:51;5;4;
43479;PMS5003;29067;35.492;-97.520;2024-02-21T14:26:19;6;5;
43479;PMS5003;29067;35.492;-97.520;2024-02-21T14:28:46;4;4;
43479;PMS5003;29067;35.492;-97.520;2024-02-21T14:31:14;4;3;
43479;PMS5003;29067;35.492;-97.520;2024-02-21T14:33:42;4;3;
43479;PMS5003;29067;35.492;-97.520;2024-02-21T14:36:10;6;5;
43479;PMS5003;29067;35.492;-97.520;2024-02-21T14:38:37;4;4;
43479;PMS5003;29067;35.492;-97.520;2024-02-21T14:41:05;5;5;
43479;PMS5003;29067;35.492;-97.520;2024-02-21T14:43:33;11;10;
43479;PMS5003;29067;35.492;-97.520;2024-02-21T14:46:01;4;3;
43479;PMS5003;29067;35.492;-97.520;2024-02-21T14:48:29;2;2;
43479;PMS5003;29067;35.492;-97.520;2024-02-21T14:50:57;3;3;
43479;PMS5003;29067;35.492;-97.520;2024-02-21T14:53:24;4;3;
43479;PMS5003;29067;35.492;-97.520;2024-02-21T14:55:52;3;3;
43479;PMS5003;29067;35.492;-97.520;2024-02-21T14:58:20;2;2;
43479;PMS5003;29067;35.492;-97.520;2024-02-21T15:00:48;2;2;
43479;PMS5003;29067;35.492;-97.520;2024-02-21T15:03:16;2;2;
43479;PMS5003;29067;35.492;-97.520;2024-02-21T15:05:43;3;3;
43479;PMS5003;29067;35.492;-97.520;2024-02-21T15:08:11;3;2;
43479;PMS5003;29067;35.492;-97.520;2024-02-21T15:10:39;4;3;
43479;PMS5003;29067;35.492;-97.520;2024-02-21T15:13:07;2;2;
43479;PMS5003;29067;35.492;-97.520;2024-02-21T15:15:34;2;2;
43479;PMS5003;29067;35.492;-97.520;2024-02-21T15:18:02;1;1;
43479;PMS5003;29067;35.492;-97.520;2024-02-21T15:20:30;6;6;
43479;PMS5003;29067;35.492;-97.520;2024-02-21T15:22:57;3;3;
43479;PMS5003;29067;35.492;-97.520;2024-02-21T15:25:25;3;3;
43479;PMS5003;29067;35.492;-97.520;2024-02-21T15:27:53;2;1;
43479;PMS5003;29067;35.492;-97.520;2024-02-21T15:30:20;3;2;
43479;PMS5003;29067;35.492;-97.520;2024-02-21T15:32:49;3;3;
43479;PMS5003;29067;35.492;-97.520;2024-02-21T15:35:16;2;2;
43479;PMS5003;29067;35.492;-97.520;2024-02-21T15:37:44;2;2;
43479;PMS5003;29067;35.492;-97.520;2024-02-21T15:40:12;1;1;
43479;PMS5003;29067;35.492;-97.520;2024-02-21T15:42:40;2;2;
43479;PMS5003;29067;35.492;-97.520;2024-02-21T15:45:08;1;1;
43479;PMS5003;29067;35.492;-97.520;2024-02-21T15:47:36;3;2;
43479;PMS5003;29067;35.492;-97.520;2024-02-21T15:50:04;2;2;
43479;PMS5003;29067;35.492;-97.520;2024-02-21T15:52:33;3;2;
43479;PMS5003;29067;35.492;-97.520;2024-02-21T15:55:01;1;1;
43479;PMS5003;29067;35.492;-97.520;2024-02-21T15:57:30;1;1;
43479;PMS5003;29067;35.492;-97.520;2024-02-21T15:59:57;2;2;
43479;PMS5003;29067;35.492;-97.520;2024-02-21T16:02:25;2;1;
43479;PMS5003;29067;35.492;-97.520;2024-02-21T16:04:53;2;2;
43479;PMS5003;29067;35.492;-97.520;2024-02-21T16:07:20;1;1;
43479;PMS5003;29067;35.492;-97.520;2024-02-21T16:09:48;1;1;
43479;PMS5003;29067;35.492;-97.520;2024-02-21T16:12:16;2;1;